sensor_id;sensor_type;location;lat;lon;timestamp;P1;durP1;ratioP1;P2;durP2;ratioP2
81039;SDS011;70525;53.224;8.782;2023-07-09T00:01:58;7.32;;;4.40;;
81039;SDS011;70525;53.224;8.782;2023-07-09T00:04:24;8.13;;;5.32;;
81039;SDS011;70525;53.224;8.782;2023-07-09T00:06:51;5.10;;;4.32;;
81039;SDS011;70525;53.224;8.782;2023-07-09T00:09:18;5.80;;;4.22;;
81039;SDS011;70525;53.224;8.782;2023-07-09T00:11:46;6.93;;;4.20;;
81039;SDS011;70525;53.224;8.782;2023-07-09T00:14:14;10.75;;;4.70;;
81039;SDS011;70525;53.224;8.782;2023-07-09T00:16:42;5.88;;;5.13;;
81039;SDS011;70525;53.224;8.782;2023-07-09T00:19:14;6.78;;;4.88;;
81039;SDS011;70525;53.224;8.782;2023-07-09T00:21:43;7.80;;;4.60;;
81039;SDS011;70525;53.224;8.782;2023-07-09T00:24:11;8.15;;;4.72;;
81039;SDS011;70525;53.224;8.782;2023-07-09T00:26:38;6.13;;;4.55;;
81039;SDS011;70525;53.224;8.782;2023-07-09T00:29:10;5.28;;;4.70;;
81039;SDS011;70525;53.224;8.782;2023-07-09T00:31:37;6.43;;;4.03;;
81039;SDS011;70525;53.224;8.782;2023-07-09T00:34:12;5.90;;;4.38;;
81039;SDS011;70525;53.224;8.782;2023-07-09T00:36:40;6.38;;;4.22;;
81039;SDS011;70525;53.224;8.782;2023-07-09T00:39:14;6.00;;;4.60;;
81039;SDS011;70525;53.224;8.782;2023-07-09T00:41:44;6.95;;;4.55;;
81039;SDS011;70525;53.224;8.782;2023-07-09T00:44:34;6.00;;;4.85;;
81039;SDS011;70525;53.224;8.782;2023-07-09T00:49:29;5.10;;;4.60;;
81039;SDS011;70525;53.224;8.782;2023-07-09T00:51:59;8.13;;;4.93;;
81039;SDS011;70525;53.224;8.782;2023-07-09T00:54:32;7.22;;;4.72;;
81039;SDS011;70525;53.224;8.782;2023-07-09T00:57:14;8.45;;;4.90;;
81039;SDS011;70525;53.224;8.782;2023-07-09T00:59:44;5.43;;;4.53;;
81039;SDS011;70525;53.224;8.782;2023-07-09T01:02:13;6.35;;;4.35;;
81039;SDS011;70525;53.224;8.782;2023-07-09T01:04:39;8.40;;;4.70;;
81039;SDS011;70525;53.224;8.782;2023-07-09T01:07:07;7.32;;;4.82;;
81039;SDS011;70525;53.224;8.782;2023-07-09T01:09:33;6.68;;;4.88;;
81039;SDS011;70525;53.224;8.782;2023-07-09T01:12:07;5.60;;;5.10;;
81039;SDS011;70525;53.224;8.782;2023-07-09T01:14:34;7.07;;;4.93;;
81039;SDS011;70525;53.224;8.782;2023-07-09T01:17:02;5.63;;;4.82;;
81039;SDS011;70525;53.224;8.782;2023-07-09T01:19:36;7.00;;;4.70;;
81039;SDS011;70525;53.224;8.782;2023-07-09T01:22:10;7.82;;;4.80;;
81039;SDS011;70525;53.224;8.782;2023-07-09T01:24:49;8.50;;;4.90;;
81039;SDS011;70525;53.224;8.782;2023-07-09T01:27:23;8.57;;;4.95;;
81039;SDS011;70525;53.224;8.782;2023-07-09T01:29:53;6.38;;;5.00;;
81039;SDS011;70525;53.224;8.782;2023-07-09T01:32:20;6.05;;;5.30;;
81039;SDS011;70525;53.224;8.782;2023-07-09T01:34:49;6.22;;;5.00;;
81039;SDS011;70525;53.224;8.782;2023-07-09T01:37:20;8.20;;;5.25;;
81039;SDS011;70525;53.224;8.782;2023-07-09T01:39:49;5.97;;;4.68;;
81039;SDS011;70525;53.224;8.782;2023-07-09T01:42:17;5.85;;;4.85;;
81039;SDS011;70525;53.224;8.782;2023-07-09T01:44:44;5.93;;;4.90;;
81039;SDS011;70525;53.224;8.782;2023-07-09T01:47:12;7.82;;;4.68;;
81039;SDS011;70525;53.224;8.782;2023-07-09T01:49:38;7.70;;;5.15;;
81039;SDS011;70525;53.224;8.782;2023-07-09T01:52:06;6.28;;;5.40;;
81039;SDS011;70525;53.224;8.782;2023-07-09T01:54:34;7.40;;;5.20;;
81039;SDS011;70525;53.224;8.782;2023-07-09T01:59:45;7.90;;;4.95;;
81039;SDS011;70525;53.224;8.782;2023-07-09T02:02:12;6.22;;;5.20;;
81039;SDS011;70525;53.224;8.782;2023-07-09T02:07:09;7.13;;;5.07;;
81039;SDS011;70525;53.224;8.782;2023-07-09T02:09:35;7.82;;;5.60;;
81039;SDS011;70525;53.224;8.782;2023-07-09T02:12:01;6.97;;;5.50;;
81039;SDS011;70525;53.224;8.782;2023-07-09T02:14:28;7.68;;;5.38;;
81039;SDS011;70525;53.224;8.782;2023-07-09T02:16:55;5.57;;;4.90;;
81039;SDS011;70525;53.224;8.782;2023-07-09T02:19:21;6.05;;;5.45;;
81039;SDS011;70525;53.224;8.782;2023-07-09T02:21:48;5.82;;;5.05;;
81039;SDS011;70525;53.224;8.782;2023-07-09T02:24:14;8.05;;;5.28;;
81039;SDS011;70525;53.224;8.782;2023-07-09T02:26:41;7.88;;;5.57;;
81039;SDS011;70525;53.224;8.782;2023-07-09T02:29:07;7.28;;;5.47;;
81039;SDS011;70525;53.224;8.782;2023-07-09T02:31:34;8.30;;;5.88;;
81039;SDS011;70525;53.224;8.782;2023-07-09T02:34:00;6.47;;;5.60;;
81039;SDS011;70525;53.224;8.782;2023-07-09T02:36:29;8.63;;;5.90;;
81039;SDS011;70525;53.224;8.782;2023-07-09T02:38:55;7.30;;;5.40;;
81039;SDS011;70525;53.224;8.782;2023-07-09T02:41:22;7.05;;;5.47;;
81039;SDS011;70525;53.224;8.782;2023-07-09T02:43:48;8.45;;;5.68;;
81039;SDS011;70525;53.224;8.782;2023-07-09T02:46:15;7.60;;;5.88;;
81039;SDS011;70525;53.224;8.782;2023-07-09T02:48:41;8.95;;;6.00;;
81039;SDS011;70525;53.224;8.782;2023-07-09T02:51:07;8.77;;;5.70;;
81039;SDS011;70525;53.224;8.782;2023-07-09T02:53:34;8.05;;;5.40;;
81039;SDS011;70525;53.224;8.782;2023-07-09T02:56:00;8.02;;;5.68;;
81039;SDS011;70525;53.224;8.782;2023-07-09T02:58:27;6.55;;;5.72;;
81039;SDS011;70525;53.224;8.782;2023-07-09T03:00:54;7.18;;;5.90;;
81039;SDS011;70525;53.224;8.782;2023-07-09T03:03:20;7.65;;;5.60;;
81039;SDS011;70525;53.224;8.782;2023-07-09T03:05:47;7.15;;;5.47;;
81039;SDS011;70525;53.224;8.782;2023-07-09T03:08:14;7.90;;;5.95;;
81039;SDS011;70525;53.224;8.782;2023-07-09T03:10:41;6.45;;;5.78;;
81039;SDS011;70525;53.224;8.782;2023-07-09T03:13:08;6.88;;;5.53;;
81039;SDS011;70525;53.224;8.782;2023-07-09T03:15:34;8.15;;;6.60;;
81039;SDS011;70525;53.224;8.782;2023-07-09T03:18:00;7.68;;;6.45;;
81039;SDS011;70525;53.224;8.782;2023-07-09T03:20:27;6.10;;;5.50;;
81039;SDS011;70525;53.224;8.782;2023-07-09T03:22:53;7.40;;;6.18;;
81039;SDS011;70525;53.224;8.782;2023-07-09T03:25:20;8.48;;;6.25;;
81039;SDS011;70525;53.224;8.782;2023-07-09T03:27:47;9.10;;;7.10;;
81039;SDS011;70525;53.224;8.782;2023-07-09T03:30:14;7.00;;;6.30;;
81039;SDS011;70525;53.224;8.782;2023-07-09T03:32:41;9.55;;;6.70;;
81039;SDS011;70525;53.224;8.782;2023-07-09T03:35:09;7.03;;;5.80;;
81039;SDS011;70525;53.224;8.782;2023-07-09T03:37:35;7.97;;;5.78;;
81039;SDS011;70525;53.224;8.782;2023-07-09T03:40:04;9.20;;;5.70;;
81039;SDS011;70525;53.224;8.782;2023-07-09T03:42:31;7.97;;;6.03;;
81039;SDS011;70525;53.224;8.782;2023-07-09T03:44:57;6.97;;;6.05;;
81039;SDS011;70525;53.224;8.782;2023-07-09T03:47:23;7.60;;;5.97;;
81039;SDS011;70525;53.224;8.782;2023-07-09T03:49:50;7.35;;;5.63;;
81039;SDS011;70525;53.224;8.782;2023-07-09T03:52:16;8.10;;;6.05;;
81039;SDS011;70525;53.224;8.782;2023-07-09T03:54:43;8.05;;;6.43;;
81039;SDS011;70525;53.224;8.782;2023-07-09T03:57:09;7.18;;;6.10;;
81039;SDS011;70525;53.224;8.782;2023-07-09T03:59:36;7.10;;;5.65;;
81039;SDS011;70525;53.224;8.782;2023-07-09T04:02:03;7.63;;;6.05;;
81039;SDS011;70525;53.224;8.782;2023-07-09T04:04:29;8.32;;;7.45;;
81039;SDS011;70525;53.224;8.782;2023-07-09T04:06:56;7.75;;;6.05;;
81039;SDS011;70525;53.224;8.782;2023-07-09T04:09:22;8.63;;;5.85;;
81039;SDS011;70525;53.224;8.782;2023-07-09T04:11:49;9.73;;;6.10;;
81039;SDS011;70525;53.224;8.782;2023-07-09T04:14:15;8.63;;;6.07;;
81039;SDS011;70525;53.224;8.782;2023-07-09T04:16:42;9.23;;;6.20;;
81039;SDS011;70525;53.224;8.782;2023-07-09T04:19:08;8.65;;;6.32;;
81039;SDS011;70525;53.224;8.782;2023-07-09T04:21:35;7.68;;;6.43;;
81039;SDS011;70525;53.224;8.782;2023-07-09T04:24:01;7.35;;;5.90;;
81039;SDS011;70525;53.224;8.782;2023-07-09T04:26:28;7.40;;;6.20;;
81039;SDS011;70525;53.224;8.782;2023-07-09T04:28:54;8.27;;;6.47;;
81039;SDS011;70525;53.224;8.782;2023-07-09T04:31:21;8.35;;;6.25;;
81039;SDS011;70525;53.224;8.782;2023-07-09T04:33:47;7.80;;;6.35;;
81039;SDS011;70525;53.224;8.782;2023-07-09T04:36:14;8.45;;;6.20;;
81039;SDS011;70525;53.224;8.782;2023-07-09T04:38:40;9.13;;;6.15;;
81039;SDS011;70525;53.224;8.782;2023-07-09T04:41:07;8.10;;;5.93;;
81039;SDS011;70525;53.224;8.782;2023-07-09T04:43:33;7.03;;;6.32;;
81039;SDS011;70525;53.224;8.782;2023-07-09T04:45:59;9.07;;;6.75;;
81039;SDS011;70525;53.224;8.782;2023-07-09T04:48:26;7.40;;;6.38;;
81039;SDS011;70525;53.224;8.782;2023-07-09T04:50:53;7.57;;;6.03;;
81039;SDS011;70525;53.224;8.782;2023-07-09T04:53:19;6.57;;;5.88;;
81039;SDS011;70525;53.224;8.782;2023-07-09T04:55:46;6.53;;;5.93;;
81039;SDS011;70525;53.224;8.782;2023-07-09T04:58:12;7.88;;;6.25;;
81039;SDS011;70525;53.224;8.782;2023-07-09T05:00:39;8.70;;;6.22;;
81039;SDS011;70525;53.224;8.782;2023-07-09T05:03:05;7.00;;;6.30;;
81039;SDS011;70525;53.224;8.782;2023-07-09T05:05:32;7.50;;;6.40;;
81039;SDS011;70525;53.224;8.782;2023-07-09T05:07:58;7.15;;;6.18;;
81039;SDS011;70525;53.224;8.782;2023-07-09T05:10:25;9.07;;;5.90;;
81039;SDS011;70525;53.224;8.782;2023-07-09T05:12:52;8.32;;;6.80;;
81039;SDS011;70525;53.224;8.782;2023-07-09T05:15:21;7.47;;;6.13;;
81039;SDS011;70525;53.224;8.782;2023-07-09T05:17:48;8.27;;;6.20;;
81039;SDS011;70525;53.224;8.782;2023-07-09T05:20:15;8.35;;;7.10;;
81039;SDS011;70525;53.224;8.782;2023-07-09T05:22:41;7.28;;;6.35;;
81039;SDS011;70525;53.224;8.782;2023-07-09T05:25:08;7.90;;;6.28;;
81039;SDS011;70525;53.224;8.782;2023-07-09T05:27:35;7.10;;;6.30;;
81039;SDS011;70525;53.224;8.782;2023-07-09T05:30:01;7.03;;;6.32;;
81039;SDS011;70525;53.224;8.782;2023-07-09T05:32:27;7.35;;;5.78;;
81039;SDS011;70525;53.224;8.782;2023-07-09T05:34:54;8.32;;;7.55;;
81039;SDS011;70525;53.224;8.782;2023-07-09T05:37:20;9.18;;;6.65;;
81039;SDS011;70525;53.224;8.782;2023-07-09T05:39:47;7.22;;;6.03;;
81039;SDS011;70525;53.224;8.782;2023-07-09T05:42:13;7.57;;;6.72;;
81039;SDS011;70525;53.224;8.782;2023-07-09T05:44:40;8.50;;;6.20;;
81039;SDS011;70525;53.224;8.782;2023-07-09T05:47:06;8.38;;;6.45;;
81039;SDS011;70525;53.224;8.782;2023-07-09T05:49:33;8.23;;;6.45;;
81039;SDS011;70525;53.224;8.782;2023-07-09T05:51:59;7.45;;;5.82;;
81039;SDS011;70525;53.224;8.782;2023-07-09T05:54:26;9.05;;;6.35;;
81039;SDS011;70525;53.224;8.782;2023-07-09T05:56:52;7.57;;;6.18;;
81039;SDS011;70525;53.224;8.782;2023-07-09T05:59:18;7.82;;;6.00;;
81039;SDS011;70525;53.224;8.782;2023-07-09T06:01:45;9.13;;;6.70;;
81039;SDS011;70525;53.224;8.782;2023-07-09T06:04:11;7.20;;;6.32;;
81039;SDS011;70525;53.224;8.782;2023-07-09T06:06:40;7.97;;;6.78;;
81039;SDS011;70525;53.224;8.782;2023-07-09T06:09:08;8.00;;;6.45;;
81039;SDS011;70525;53.224;8.782;2023-07-09T06:11:35;8.00;;;6.47;;
81039;SDS011;70525;53.224;8.782;2023-07-09T06:14:01;7.05;;;6.32;;
81039;SDS011;70525;53.224;8.782;2023-07-09T06:16:28;8.20;;;7.35;;
81039;SDS011;70525;53.224;8.782;2023-07-09T06:18:55;9.65;;;6.72;;
81039;SDS011;70525;53.224;8.782;2023-07-09T06:21:21;7.20;;;6.30;;
81039;SDS011;70525;53.224;8.782;2023-07-09T06:23:48;7.38;;;5.97;;
81039;SDS011;70525;53.224;8.782;2023-07-09T06:26:14;9.05;;;6.70;;
81039;SDS011;70525;53.224;8.782;2023-07-09T06:28:40;8.93;;;7.00;;
81039;SDS011;70525;53.224;8.782;2023-07-09T06:31:07;10.30;;;6.90;;
81039;SDS011;70525;53.224;8.782;2023-07-09T06:33:33;9.52;;;6.50;;
81039;SDS011;70525;53.224;8.782;2023-07-09T06:36:00;6.72;;;6.03;;
81039;SDS011;70525;53.224;8.782;2023-07-09T06:39:24;7.93;;;6.72;;
81039;SDS011;70525;53.224;8.782;2023-07-09T06:41:50;8.23;;;6.47;;
81039;SDS011;70525;53.224;8.782;2023-07-09T06:44:17;7.63;;;6.82;;
81039;SDS011;70525;53.224;8.782;2023-07-09T06:46:43;8.02;;;6.40;;
81039;SDS011;70525;53.224;8.782;2023-07-09T06:49:12;8.52;;;6.63;;
81039;SDS011;70525;53.224;8.782;2023-07-09T06:51:39;7.28;;;6.35;;
81039;SDS011;70525;53.224;8.782;2023-07-09T06:54:05;8.48;;;6.78;;
81039;SDS011;70525;53.224;8.782;2023-07-09T06:56:32;8.98;;;6.30;;
81039;SDS011;70525;53.224;8.782;2023-07-09T06:58:59;8.13;;;7.32;;
81039;SDS011;70525;53.224;8.782;2023-07-09T07:01:25;7.28;;;5.90;;
81039;SDS011;70525;53.224;8.782;2023-07-09T07:03:51;7.45;;;6.75;;
81039;SDS011;70525;53.224;8.782;2023-07-09T07:06:18;8.18;;;6.38;;
81039;SDS011;70525;53.224;8.782;2023-07-09T07:08:44;8.85;;;6.13;;
81039;SDS011;70525;53.224;8.782;2023-07-09T07:11:11;8.18;;;7.38;;
81039;SDS011;70525;53.224;8.782;2023-07-09T07:13:38;7.32;;;6.05;;
81039;SDS011;70525;53.224;8.782;2023-07-09T07:16:06;7.57;;;6.03;;
81039;SDS011;70525;53.224;8.782;2023-07-09T07:18:34;7.18;;;6.13;;
81039;SDS011;70525;53.224;8.782;2023-07-09T07:21:01;9.15;;;6.85;;
81039;SDS011;70525;53.224;8.782;2023-07-09T07:23:28;7.82;;;6.13;;
81039;SDS011;70525;53.224;8.782;2023-07-09T07:25:54;7.80;;;6.50;;
81039;SDS011;70525;53.224;8.782;2023-07-09T07:29:07;7.00;;;6.32;;
81039;SDS011;70525;53.224;8.782;2023-07-09T07:31:34;7.20;;;6.03;;
81039;SDS011;70525;53.224;8.782;2023-07-09T07:34:00;7.60;;;6.22;;
81039;SDS011;70525;53.224;8.782;2023-07-09T07:36:27;8.80;;;6.40;;
81039;SDS011;70525;53.224;8.782;2023-07-09T07:38:56;7.43;;;5.90;;
81039;SDS011;70525;53.224;8.782;2023-07-09T07:41:23;7.47;;;6.65;;
81039;SDS011;70525;53.224;8.782;2023-07-09T07:43:49;7.93;;;6.53;;
81039;SDS011;70525;53.224;8.782;2023-07-09T07:46:16;7.63;;;6.43;;
81039;SDS011;70525;53.224;8.782;2023-07-09T07:48:42;7.28;;;6.53;;
81039;SDS011;70525;53.224;8.782;2023-07-09T07:51:09;7.15;;;6.45;;
81039;SDS011;70525;53.224;8.782;2023-07-09T07:53:35;6.72;;;6.13;;
81039;SDS011;70525;53.224;8.782;2023-07-09T07:56:02;7.50;;;6.70;;
81039;SDS011;70525;53.224;8.782;2023-07-09T07:58:29;7.03;;;6.35;;
81039;SDS011;70525;53.224;8.782;2023-07-09T08:00:57;7.40;;;6.65;;
81039;SDS011;70525;53.224;8.782;2023-07-09T08:03:23;7.22;;;6.57;;
81039;SDS011;70525;53.224;8.782;2023-07-09T08:05:50;7.75;;;6.32;;
81039;SDS011;70525;53.224;8.782;2023-07-09T17:56:39;10.68;;;8.05;;
81039;SDS011;70525;53.224;8.782;2023-07-09T17:59:08;9.10;;;6.80;;
81039;SDS011;70525;53.224;8.782;2023-07-09T18:01:37;9.57;;;6.95;;
81039;SDS011;70525;53.224;8.782;2023-07-09T18:04:11;12.70;;;7.05;;
81039;SDS011;70525;53.224;8.782;2023-07-09T18:06:55;8.05;;;6.35;;
81039;SDS011;70525;53.224;8.782;2023-07-09T18:09:22;7.90;;;7.10;;
81039;SDS011;70525;53.224;8.782;2023-07-09T18:11:52;10.32;;;7.63;;
